sensor_id;sensor_type;location;lat;lon;timestamp;P1;durP1;ratioP1;P2;durP2;ratioP2
60257;SDS011;46115;44.484;11.314;2023-02-28T00:02:54;17.33;;;9.65;;
60257;SDS011;46115;44.484;11.314;2023-02-28T00:06:56;16.30;;;10.10;;
60257;SDS011;46115;44.484;11.314;2023-02-28T00:15:05;14.35;;;9.05;;
60257;SDS011;46115;44.484;11.314;2023-02-28T00:19:08;14.88;;;9.30;;
60257;SDS011;46115;44.484;11.314;2023-02-28T00:23:14;17.25;;;10.15;;
60257;SDS011;46115;44.484;11.314;2023-02-28T00:27:17;17.13;;;9.93;;
60257;SDS011;46115;44.484;11.314;2023-02-28T00:31:20;15.60;;;9.95;;
60257;SDS011;46115;44.484;11.314;2023-02-28T00:35:23;16.42;;;10.60;;
60257;SDS011;46115;44.484;11.314;2023-02-28T00:43:28;17.23;;;9.93;;
60257;SDS011;46115;44.484;11.314;2023-02-28T00:47:31;15.52;;;9.80;;
60257;SDS011;46115;44.484;11.314;2023-02-28T00:51:33;15.30;;;10.45;;
60257;SDS011;46115;44.484;11.314;2023-02-28T01:03:42;18.90;;;10.18;;
60257;SDS011;46115;44.484;11.314;2023-02-28T01:07:44;17.17;;;9.70;;
60257;SDS011;46115;44.484;11.314;2023-02-28T01:11:46;15.90;;;10.13;;
60257;SDS011;46115;44.484;11.314;2023-02-28T01:19:53;19.08;;;10.10;;
60257;SDS011;46115;44.484;11.314;2023-02-28T01:23:59;14.65;;;9.70;;
60257;SDS011;46115;44.484;11.314;2023-02-28T01:32:05;14.50;;;9.37;;
60257;SDS011;46115;44.484;11.314;2023-02-28T01:36:10;14.27;;;9.40;;
60257;SDS011;46115;44.484;11.314;2023-02-28T01:40:14;15.27;;;9.73;;
60257;SDS011;46115;44.484;11.314;2023-02-28T01:49:06;16.75;;;9.88;;
60257;SDS011;46115;44.484;11.314;2023-02-28T01:53:14;15.38;;;9.23;;
60257;SDS011;46115;44.484;11.314;2023-02-28T01:57:21;15.63;;;9.50;;
60257;SDS011;46115;44.484;11.314;2023-02-28T02:01:28;18.05;;;9.60;;
60257;SDS011;46115;44.484;11.314;2023-02-28T02:05:32;15.05;;;9.63;;
60257;SDS011;46115;44.484;11.314;2023-02-28T02:09:35;16.25;;;9.40;;
60257;SDS011;46115;44.484;11.314;2023-02-28T02:13:40;14.73;;;8.45;;
60257;SDS011;46115;44.484;11.314;2023-02-28T02:18:04;15.15;;;9.23;;
60257;SDS011;46115;44.484;11.314;2023-02-28T02:22:23;14.02;;;8.60;;
60257;SDS011;46115;44.484;11.314;2023-02-28T02:35:57;13.73;;;8.60;;
60257;SDS011;46115;44.484;11.314;2023-02-28T02:40:08;14.95;;;8.32;;
60257;SDS011;46115;44.484;11.314;2023-02-28T02:44:18;14.88;;;8.90;;
60257;SDS011;46115;44.484;11.314;2023-02-28T02:48:24;16.60;;;9.50;;
60257;SDS011;46115;44.484;11.314;2023-02-28T02:52:34;12.48;;;8.48;;
60257;SDS011;46115;44.484;11.314;2023-02-28T02:56:41;12.02;;;8.63;;
60257;SDS011;46115;44.484;11.314;2023-02-28T03:00:46;12.43;;;8.48;;
60257;SDS011;46115;44.484;11.314;2023-02-28T03:04:56;12.45;;;8.40;;
60257;SDS011;46115;44.484;11.314;2023-02-28T03:09:04;18.13;;;8.45;;
60257;SDS011;46115;44.484;11.314;2023-02-28T03:13:11;15.10;;;9.20;;
60257;SDS011;46115;44.484;11.314;2023-02-28T03:17:23;15.85;;;8.63;;
60257;SDS011;46115;44.484;11.314;2023-02-28T03:21:38;16.38;;;8.88;;
60257;SDS011;46115;44.484;11.314;2023-02-28T03:25:54;13.80;;;9.10;;
60257;SDS011;46115;44.484;11.314;2023-02-28T03:30:01;12.43;;;8.85;;
60257;SDS011;46115;44.484;11.314;2023-02-28T03:34:08;14.10;;;9.32;;
60257;SDS011;46115;44.484;11.314;2023-02-28T03:38:15;13.73;;;8.73;;
60257;SDS011;46115;44.484;11.314;2023-02-28T03:42:23;13.23;;;7.72;;
60257;SDS011;46115;44.484;11.314;2023-02-28T03:46:31;12.20;;;8.27;;
60257;SDS011;46115;44.484;11.314;2023-02-28T03:50:38;14.05;;;8.05;;
60257;SDS011;46115;44.484;11.314;2023-02-28T03:54:43;11.63;;;8.73;;
60257;SDS011;46115;44.484;11.314;2023-02-28T03:58:51;14.27;;;8.98;;
60257;SDS011;46115;44.484;11.314;2023-02-28T04:02:57;15.32;;;8.35;;
60257;SDS011;46115;44.484;11.314;2023-02-28T04:07:03;14.00;;;8.43;;
60257;SDS011;46115;44.484;11.314;2023-02-28T04:11:12;14.18;;;8.57;;
60257;SDS011;46115;44.484;11.314;2023-02-28T04:15:23;14.38;;;8.60;;
60257;SDS011;46115;44.484;11.314;2023-02-28T04:19:25;12.88;;;8.65;;
60257;SDS011;46115;44.484;11.314;2023-02-28T04:23:28;17.42;;;9.38;;
60257;SDS011;46115;44.484;11.314;2023-02-28T04:27:30;15.65;;;9.20;;
60257;SDS011;46115;44.484;11.314;2023-02-28T04:35:36;13.43;;;8.73;;
60257;SDS011;46115;44.484;11.314;2023-02-28T04:39:38;14.30;;;8.98;;
60257;SDS011;46115;44.484;11.314;2023-02-28T04:43:41;12.65;;;8.82;;
60257;SDS011;46115;44.484;11.314;2023-02-28T04:47:45;11.13;;;8.80;;
60257;SDS011;46115;44.484;11.314;2023-02-28T04:51:47;12.30;;;8.68;;
60257;SDS011;46115;44.484;11.314;2023-02-28T04:55:50;11.35;;;8.55;;
60257;SDS011;46115;44.484;11.314;2023-02-28T05:03:56;12.47;;;8.13;;
60257;SDS011;46115;44.484;11.314;2023-02-28T05:08:00;12.45;;;8.43;;
60257;SDS011;46115;44.484;11.314;2023-02-28T05:12:02;10.82;;;8.00;;
60257;SDS011;46115;44.484;11.314;2023-02-28T05:20:09;12.32;;;8.27;;
60257;SDS011;46115;44.484;11.314;2023-02-28T05:24:14;11.65;;;8.52;;
60257;SDS011;46115;44.484;11.314;2023-02-28T05:28:16;12.90;;;8.80;;
60257;SDS011;46115;44.484;11.314;2023-02-28T05:36:22;14.83;;;9.23;;
60257;SDS011;46115;44.484;11.314;2023-02-28T05:40:24;14.25;;;9.07;;
60257;SDS011;46115;44.484;11.314;2023-02-28T05:48:28;11.45;;;8.65;;
60257;SDS011;46115;44.484;11.314;2023-02-28T05:56:34;12.70;;;9.02;;
60257;SDS011;46115;44.484;11.314;2023-02-28T06:00:39;14.75;;;9.40;;
60257;SDS011;46115;44.484;11.314;2023-02-28T06:08:46;17.42;;;10.00;;
60257;SDS011;46115;44.484;11.314;2023-02-28T06:12:48;14.35;;;9.95;;
60257;SDS011;46115;44.484;11.314;2023-02-28T06:16:50;13.02;;;9.90;;
60257;SDS011;46115;44.484;11.314;2023-02-28T06:20:53;14.63;;;9.57;;
60257;SDS011;46115;44.484;11.314;2023-02-28T06:24:57;13.75;;;9.57;;
60257;SDS011;46115;44.484;11.314;2023-02-28T06:28:59;17.83;;;10.65;;
60257;SDS011;46115;44.484;11.314;2023-02-28T06:33:02;13.70;;;9.73;;
60257;SDS011;46115;44.484;11.314;2023-02-28T06:41:08;20.17;;;11.15;;
60257;SDS011;46115;44.484;11.314;2023-02-28T06:45:11;14.55;;;11.10;;
60257;SDS011;46115;44.484;11.314;2023-02-28T06:49:14;15.20;;;11.23;;
60257;SDS011;46115;44.484;11.314;2023-02-28T06:53:16;15.63;;;10.77;;
60257;SDS011;46115;44.484;11.314;2023-02-28T07:01:22;16.63;;;10.00;;
60257;SDS011;46115;44.484;11.314;2023-02-28T07:05:25;16.30;;;11.13;;
60257;SDS011;46115;44.484;11.314;2023-02-28T07:09:27;17.70;;;11.38;;
60257;SDS011;46115;44.484;11.314;2023-02-28T07:13:32;18.73;;;11.45;;
60257;SDS011;46115;44.484;11.314;2023-02-28T07:17:34;14.23;;;11.02;;
60257;SDS011;46115;44.484;11.314;2023-02-28T07:25:38;18.30;;;11.33;;
60257;SDS011;46115;44.484;11.314;2023-02-28T07:33:44;19.38;;;11.95;;
60257;SDS011;46115;44.484;11.314;2023-02-28T07:37:47;16.25;;;11.35;;
60257;SDS011;46115;44.484;11.314;2023-02-28T07:45:53;17.67;;;11.40;;
60257;SDS011;46115;44.484;11.314;2023-02-28T07:49:55;19.00;;;12.15;;
60257;SDS011;46115;44.484;11.314;2023-02-28T07:57:59;17.83;;;11.43;;
60257;SDS011;46115;44.484;11.314;2023-02-28T08:02:03;16.80;;;12.20;;
60257;SDS011;46115;44.484;11.314;2023-02-28T08:06:06;15.30;;;11.02;;
60257;SDS011;46115;44.484;11.314;2023-02-28T08:10:16;15.90;;;12.00;;
60257;SDS011;46115;44.484;11.314;2023-02-28T08:18:22;14.10;;;11.35;;
60257;SDS011;46115;44.484;11.314;2023-02-28T08:22:25;15.60;;;10.88;;
60257;SDS011;46115;44.484;11.314;2023-02-28T08:30:29;16.48;;;11.98;;
60257;SDS011;46115;44.484;11.314;2023-02-28T08:38:35;14.35;;;11.05;;
60257;SDS011;46115;44.484;11.314;2023-02-28T08:42:38;16.30;;;11.48;;
60257;SDS011;46115;44.484;11.314;2023-02-28T08:50:44;15.80;;;12.38;;
60257;SDS011;46115;44.484;11.314;2023-02-28T08:54:47;17.25;;;12.68;;
60257;SDS011;46115;44.484;11.314;2023-02-28T08:58:50;15.40;;;12.18;;
60257;SDS011;46115;44.484;11.314;2023-02-28T09:02:55;16.52;;;12.63;;
60257;SDS011;46115;44.484;11.314;2023-02-28T09:06:59;15.25;;;12.73;;
60257;SDS011;46115;44.484;11.314;2023-02-28T09:11:01;16.98;;;13.10;;
60257;SDS011;46115;44.484;11.314;2023-02-28T09:15:05;17.42;;;13.10;;
60257;SDS011;46115;44.484;11.314;2023-02-28T09:19:10;18.75;;;13.73;;
60257;SDS011;46115;44.484;11.314;2023-02-28T09:23:14;20.55;;;13.70;;
60257;SDS011;46115;44.484;11.314;2023-02-28T09:27:16;18.23;;;13.63;;
60257;SDS011;46115;44.484;11.314;2023-02-28T09:35:23;20.92;;;14.45;;
60257;SDS011;46115;44.484;11.314;2023-02-28T09:39:28;19.80;;;14.88;;
60257;SDS011;46115;44.484;11.314;2023-02-28T09:43:33;17.77;;;14.35;;
60257;SDS011;46115;44.484;11.314;2023-02-28T09:47:38;18.05;;;14.38;;
60257;SDS011;46115;44.484;11.314;2023-02-28T09:51:46;19.55;;;14.20;;
60257;SDS011;46115;44.484;11.314;2023-02-28T09:55:55;19.98;;;15.30;;
60257;SDS011;46115;44.484;11.314;2023-02-28T10:00:02;16.90;;;12.52;;
60257;SDS011;46115;44.484;11.314;2023-02-28T10:04:19;17.90;;;13.20;;
60257;SDS011;46115;44.484;11.314;2023-02-28T10:08:40;17.38;;;12.63;;
60257;SDS011;46115;44.484;11.314;2023-02-28T10:12:51;17.80;;;13.00;;
60257;SDS011;46115;44.484;11.314;2023-02-28T10:16:56;18.23;;;13.52;;
60257;SDS011;46115;44.484;11.314;2023-02-28T10:21:02;18.05;;;13.93;;
60257;SDS011;46115;44.484;11.314;2023-02-28T10:25:05;17.23;;;13.55;;
60257;SDS011;46115;44.484;11.314;2023-02-28T10:29:20;18.17;;;13.13;;
60257;SDS011;46115;44.484;11.314;2023-02-28T10:33:23;18.98;;;13.00;;
60257;SDS011;46115;44.484;11.314;2023-02-28T10:37:27;17.33;;;12.82;;
60257;SDS011;46115;44.484;11.314;2023-02-28T10:41:30;17.13;;;13.13;;
60257;SDS011;46115;44.484;11.314;2023-02-28T10:45:36;16.73;;;13.68;;
60257;SDS011;46115;44.484;11.314;2023-02-28T10:49:39;18.63;;;13.32;;
60257;SDS011;46115;44.484;11.314;2023-02-28T10:53:49;17.90;;;14.02;;
60257;SDS011;46115;44.484;11.314;2023-02-28T10:57:53;20.38;;;14.18;;
60257;SDS011;46115;44.484;11.314;2023-02-28T11:06:04;21.08;;;13.95;;
60257;SDS011;46115;44.484;11.314;2023-02-28T11:10:16;20.25;;;13.32;;
60257;SDS011;46115;44.484;11.314;2023-02-28T11:14:22;19.00;;;13.93;;
60257;SDS011;46115;44.484;11.314;2023-02-28T11:18:29;19.55;;;14.93;;
60257;SDS011;46115;44.484;11.314;2023-02-28T11:22:37;20.00;;;13.02;;
60257;SDS011;46115;44.484;11.314;2023-02-28T11:26:46;19.08;;;14.05;;
60257;SDS011;46115;44.484;11.314;2023-02-28T11:30:59;16.30;;;13.40;;
60257;SDS011;46115;44.484;11.314;2023-02-28T11:35:14;17.60;;;13.30;;
60257;SDS011;46115;44.484;11.314;2023-02-28T11:39:23;16.75;;;13.80;;
60257;SDS011;46115;44.484;11.314;2023-02-28T11:43:30;19.35;;;14.07;;
60257;SDS011;46115;44.484;11.314;2023-02-28T11:47:45;18.08;;;14.35;;
60257;SDS011;46115;44.484;11.314;2023-02-28T11:51:53;23.35;;;15.13;;
60257;SDS011;46115;44.484;11.314;2023-02-28T11:56:02;17.85;;;14.25;;
60257;SDS011;46115;44.484;11.314;2023-02-28T12:00:11;20.65;;;13.98;;
60257;SDS011;46115;44.484;11.314;2023-02-28T12:04:33;22.17;;;14.63;;
60257;SDS011;46115;44.484;11.314;2023-02-28T12:08:53;22.88;;;14.27;;
60257;SDS011;46115;44.484;11.314;2023-02-28T12:13:07;18.05;;;14.15;;
60257;SDS011;46115;44.484;11.314;2023-02-28T12:17:22;19.42;;;13.85;;
60257;SDS011;46115;44.484;11.314;2023-02-28T12:21:38;21.98;;;14.50;;
60257;SDS011;46115;44.484;11.314;2023-02-28T12:25:55;19.83;;;13.60;;
60257;SDS011;46115;44.484;11.314;2023-02-28T12:30:05;18.35;;;13.00;;
60257;SDS011;46115;44.484;11.314;2023-02-28T12:34:18;18.70;;;13.95;;
60257;SDS011;46115;44.484;11.314;2023-02-28T12:38:25;21.80;;;13.20;;
60257;SDS011;46115;44.484;11.314;2023-02-28T12:42:33;17.13;;;12.38;;
60257;SDS011;46115;44.484;11.314;2023-02-28T12:46:42;20.15;;;12.80;;
60257;SDS011;46115;44.484;11.314;2023-02-28T12:50:49;22.15;;;13.50;;
60257;SDS011;46115;44.484;11.314;2023-02-28T12:54:53;18.60;;;13.15;;
60257;SDS011;46115;44.484;11.314;2023-02-28T12:59:05;20.85;;;13.25;;
60257;SDS011;46115;44.484;11.314;2023-02-28T13:03:24;18.52;;;12.73;;
60257;SDS011;46115;44.484;11.314;2023-02-28T13:12:18;18.52;;;13.30;;
60257;SDS011;46115;44.484;11.314;2023-02-28T13:16:24;18.10;;;13.25;;
60257;SDS011;46115;44.484;11.314;2023-02-28T13:20:29;17.10;;;13.20;;
60257;SDS011;46115;44.484;11.314;2023-02-28T13:24:38;17.88;;;13.88;;
60257;SDS011;46115;44.484;11.314;2023-02-28T13:33:56;19.27;;;13.93;;
60257;SDS011;46115;44.484;11.314;2023-02-28T13:42:46;18.93;;;14.63;;
60257;SDS011;46115;44.484;11.314;2023-02-28T13:51:38;20.02;;;14.27;;
60257;SDS011;46115;44.484;11.314;2023-02-28T13:55:44;22.98;;;14.90;;
60257;SDS011;46115;44.484;11.314;2023-02-28T14:00:05;23.05;;;15.10;;
60257;SDS011;46115;44.484;11.314;2023-02-28T14:04:32;23.05;;;15.50;;
60257;SDS011;46115;44.484;11.314;2023-02-28T14:08:52;20.42;;;15.27;;
60257;SDS011;46115;44.484;11.314;2023-02-28T14:13:00;19.13;;;14.88;;
60257;SDS011;46115;44.484;11.314;2023-02-28T14:17:04;20.60;;;14.85;;
60257;SDS011;46115;44.484;11.314;2023-02-28T14:21:11;23.58;;;15.68;;
60257;SDS011;46115;44.484;11.314;2023-02-28T14:25:25;21.92;;;16.20;;
60257;SDS011;46115;44.484;11.314;2023-02-28T14:34:40;22.10;;;15.63;;
60257;SDS011;46115;44.484;11.314;2023-02-28T14:38:51;22.77;;;16.15;;
60257;SDS011;46115;44.484;11.314;2023-02-28T14:42:57;22.13;;;16.75;;
60257;SDS011;46115;44.484;11.314;2023-02-28T14:47:01;22.60;;;17.27;;
60257;SDS011;46115;44.484;11.314;2023-02-28T14:51:07;22.30;;;17.08;;
60257;SDS011;46115;44.484;11.314;2023-02-28T14:55:12;22.73;;;17.88;;
60257;SDS011;46115;44.484;11.314;2023-02-28T14:59:23;24.52;;;18.50;;
60257;SDS011;46115;44.484;11.314;2023-02-28T15:03:30;23.75;;;18.20;;
60257;SDS011;46115;44.484;11.314;2023-02-28T15:07:33;23.00;;;17.30;;
60257;SDS011;46115;44.484;11.314;2023-02-28T15:15:41;28.42;;;18.35;;
60257;SDS011;46115;44.484;11.314;2023-02-28T15:19:47;27.38;;;18.65;;
60257;SDS011;46115;44.484;11.314;2023-02-28T15:23:54;22.85;;;18.20;;
60257;SDS011;46115;44.484;11.314;2023-02-28T15:27:59;24.58;;;18.30;;
60257;SDS011;46115;44.484;11.314;2023-02-28T15:32:04;25.33;;;17.48;;
60257;SDS011;46115;44.484;11.314;2023-02-28T15:36:12;22.38;;;17.83;;
60257;SDS011;46115;44.484;11.314;2023-02-28T15:40:17;21.27;;;17.33;;
60257;SDS011;46115;44.484;11.314;2023-02-28T15:44:26;25.00;;;18.55;;
60257;SDS011;46115;44.484;11.314;2023-02-28T15:48:32;27.52;;;18.63;;
60257;SDS011;46115;44.484;11.314;2023-02-28T15:52:38;23.35;;;18.52;;
60257;SDS011;46115;44.484;11.314;2023-02-28T15:56:43;25.95;;;19.42;;
60257;SDS011;46115;44.484;11.314;2023-02-28T16:00:59;23.77;;;18.23;;
60257;SDS011;46115;44.484;11.314;2023-02-28T16:09:33;25.85;;;18.95;;
60257;SDS011;46115;44.484;11.314;2023-02-28T16:13:35;24.52;;;18.35;;
60257;SDS011;46115;44.484;11.314;2023-02-28T16:17:38;23.33;;;18.80;;
60257;SDS011;46115;44.484;11.314;2023-02-28T16:21:42;26.17;;;17.73;;
60257;SDS011;46115;44.484;11.314;2023-02-28T16:25:45;28.83;;;18.70;;
60257;SDS011;46115;44.484;11.314;2023-02-28T16:29:47;24.92;;;17.42;;
60257;SDS011;46115;44.484;11.314;2023-02-28T16:33:50;24.55;;;18.33;;
60257;SDS011;46115;44.484;11.314;2023-02-28T16:37:54;26.95;;;19.00;;
60257;SDS011;46115;44.484;11.314;2023-02-28T16:41:56;23.05;;;17.83;;
60257;SDS011;46115;44.484;11.314;2023-02-28T16:45:58;21.88;;;17.00;;
60257;SDS011;46115;44.484;11.314;2023-02-28T16:50:04;24.15;;;18.13;;
60257;SDS011;46115;44.484;11.314;2023-02-28T16:54:12;24.85;;;18.15;;
60257;SDS011;46115;44.484;11.314;2023-02-28T16:58:15;28.65;;;18.77;;
60257;SDS011;46115;44.484;11.314;2023-02-28T17:02:19;23.42;;;17.80;;
60257;SDS011;46115;44.484;11.314;2023-02-28T17:06:23;24.92;;;18.08;;
60257;SDS011;46115;44.484;11.314;2023-02-28T17:10:29;25.50;;;17.88;;
60257;SDS011;46115;44.484;11.314;2023-02-28T17:14:33;23.30;;;18.45;;
60257;SDS011;46115;44.484;11.314;2023-02-28T17:18:35;24.00;;;19.20;;
60257;SDS011;46115;44.484;11.314;2023-02-28T17:22:39;24.45;;;18.48;;
60257;SDS011;46115;44.484;11.314;2023-02-28T17:26:43;25.48;;;18.13;;
60257;SDS011;46115;44.484;11.314;2023-02-28T23:06:12;37.67;;;24.15;;
60257;SDS011;46115;44.484;11.314;2023-02-28T23:10:17;38.00;;;22.77;;
60257;SDS011;46115;44.484;11.314;2023-02-28T23:14:19;37.53;;;24.23;;
60257;SDS011;46115;44.484;11.314;2023-02-28T23:18:22;35.10;;;22.13;;
60257;SDS011;46115;44.484;11.314;2023-02-28T23:22:25;35.70;;;23.33;;
60257;SDS011;46115;44.484;11.314;2023-02-28T23:26:28;33.13;;;21.98;;
60257;SDS011;46115;44.484;11.314;2023-02-28T23:30:31;35.58;;;21.52;;
60257;SDS011;46115;44.484;11.314;2023-02-28T23:34:34;28.73;;;18.95;;
60257;SDS011;46115;44.484;11.314;2023-02-28T23:42:40;32.80;;;19.85;;
60257;SDS011;46115;44.484;11.314;2023-02-28T23:46:45;35.25;;;18.40;;
60257;SDS011;46115;44.484;11.314;2023-02-28T23:50:48;26.95;;;17.92;;
60257;SDS011;46115;44.484;11.314;2023-02-28T23:54:52;27.48;;;16.73;;
60257;SDS011;46115;44.484;11.314;2023-02-28T23:58:54;29.13;;;16.52;;
